createdAt,value
2023-01-13T00:11:18.131Z,7.68
2023-01-13T00:26:23.136Z,7.68
2023-01-13T00:41:28.171Z,7.68
2023-01-13T00:56:40.077Z,7.68
2023-01-13T01:11:38.142Z,7.68
2023-01-13T01:26:43.128Z,7.619999999999999
2023-01-13T01:41:48.137Z,7.619999999999999
2023-01-13T01:56:53.144Z,7.619999999999999
2023-01-13T02:11:58.139Z,7.5600000000000005
2023-01-13T02:27:03.136Z,7.5600000000000005
2023-01-13T02:42:08.157Z,7.5600000000000005
2023-01-13T02:57:13.155Z,7.5
2023-01-13T03:12:18.141Z,7.43
2023-01-13T03:27:23.161Z,7.37
2023-01-13T03:42:28.158Z,7.31
2023-01-13T03:57:33.146Z,7.25
2023-01-13T04:12:38.173Z,7.18
2023-01-13T04:27:43.134Z,7.12
2023-01-13T04:42:48.177Z,7.12
2023-01-13T04:57:53.157Z,7.06
2023-01-13T05:12:58.152Z,7.06
2023-01-13T05:28:03.145Z,7
2023-01-13T05:43:08.187Z,7
2023-01-13T05:58:13.185Z,7
2023-01-13T06:13:16.205Z,7
2023-01-13T06:28:21.184Z,6.93
2023-01-13T06:43:26.199Z,6.93
2023-01-13T06:58:31.197Z,6.93
2023-01-13T07:13:36.170Z,6.87
2023-01-13T07:28:41.215Z,6.81
2023-01-13T07:43:46.224Z,6.81
2023-01-13T07:58:51.255Z,6.75
2023-01-13T08:13:56.191Z,6.75
2023-01-13T08:29:01.208Z,6.75
2023-01-13T08:44:06.209Z,6.75
2023-01-13T08:59:11.164Z,6.75
2023-01-13T09:14:16.218Z,6.75
2023-01-13T09:29:21.209Z,6.75
2023-01-13T09:44:26.229Z,6.75
2023-01-13T09:59:31.228Z,6.75
2023-01-13T10:14:36.207Z,6.75
2023-01-13T10:29:41.244Z,6.75
2023-01-13T10:44:46.228Z,6.75
2023-01-13T10:59:51.213Z,6.75
2023-01-13T11:14:56.230Z,6.81
2023-01-13T11:30:01.240Z,6.81
2023-01-13T11:45:06.237Z,6.87
2023-01-13T12:00:11.233Z,6.87
2023-01-13T12:15:16.215Z,6.87
2023-01-13T12:30:21.208Z,6.87
2023-01-13T12:45:26.217Z,6.87
2023-01-13T13:00:31.209Z,6.81
2023-01-13T13:15:34.237Z,6.81
2023-01-13T13:30:39.302Z,6.75
2023-01-13T13:45:44.291Z,6.75
2023-01-13T14:00:49.294Z,6.75
2023-01-13T14:15:54.287Z,6.75
2023-01-13T14:30:59.288Z,6.68
2023-01-13T14:46:04.193Z,6.68
2023-01-13T15:01:09.195Z,6.68
2023-01-13T15:16:14.221Z,6.68
2023-01-13T15:31:19.203Z,6.68
2023-01-13T15:46:24.190Z,6.68
2023-01-13T16:01:29.251Z,6.68
2023-01-13T16:16:34.294Z,6.68
2023-01-13T16:31:39.371Z,6.62
2023-01-13T16:46:44.633Z,6.62
2023-01-13T17:01:49.326Z,6.62
2023-01-13T17:16:54.862Z,6.62
2023-01-13T17:31:59.326Z,6.62
2023-01-13T17:47:04.284Z,6.56
2023-01-13T18:02:09.432Z,6.56
2023-01-13T18:17:14.277Z,6.56
2023-01-13T18:32:19.258Z,6.56
2023-01-13T18:47:24.242Z,6.5
2023-01-13T19:02:29.364Z,6.5
2023-01-13T19:17:34.269Z,6.5
2023-01-13T19:32:39.264Z,6.5
2023-01-13T19:47:44.309Z,6.5
2023-01-13T20:02:49.602Z,6.5
2023-01-13T20:17:54.271Z,6.5
2023-01-13T20:32:59.313Z,6.5
2023-01-13T20:48:04.280Z,6.5
2023-01-13T21:03:09.310Z,6.5
2023-01-13T21:18:14.286Z,6.43
2023-01-13T21:33:19.290Z,6.43
2023-01-13T21:48:24.337Z,6.43
2023-01-13T22:03:29.288Z,6.43
2023-01-13T22:18:34.308Z,6.37
2023-01-13T22:33:39.306Z,6.37
2023-01-13T22:48:44.340Z,6.37
2023-01-13T23:03:49.453Z,6.37
2023-01-13T23:18:54.438Z,6.37
2023-01-13T23:33:59.355Z,6.37
2023-01-13T23:49:12.341Z,6.37
